createdAt,value
2023-05-06T00:02:22.398Z,75222.03
2023-05-06T00:04:50.390Z,75226.13
2023-05-06T00:07:19.558Z,75236.31
2023-05-06T00:09:47.427Z,75242.41
2023-05-06T00:12:15.416Z,75254.66
2023-05-06T00:14:43.245Z,75262.81
2023-05-06T00:17:11.105Z,75273.00
2023-05-06T00:19:39.691Z,75289.31
2023-05-06T00:22:07.417Z,75283.19
2023-05-06T00:24:36.563Z,75289.31
2023-05-06T00:27:04.558Z,75299.50
2023-05-06T00:29:32.280Z,75303.56
2023-05-06T00:32:00.059Z,75295.41
2023-05-06T00:34:27.903Z,75303.56
2023-05-06T00:36:55.756Z,75315.81
2023-05-06T00:39:23.598Z,75315.81
2023-05-06T00:41:52.727Z,75311.72
2023-05-06T00:44:20.490Z,75305.59
2023-05-06T00:46:48.261Z,75303.56
2023-05-06T00:49:16.136Z,75287.25
2023-05-06T00:51:43.915Z,75291.34
2023-05-06T00:54:12.019Z,75279.09
2023-05-06T00:56:40.219Z,75291.34
2023-05-06T00:59:09.328Z,75291.34
2023-05-06T01:01:37.661Z,75295.41
2023-05-06T01:04:07.983Z,75287.25
2023-05-06T01:06:46.489Z,75287.25
2023-05-06T01:09:21.705Z,75291.34
2023-05-06T01:11:53.928Z,75293.38
2023-05-06T01:14:31.815Z,75291.34
2023-05-06T01:17:04.217Z,75301.53
2023-05-06T01:19:41.847Z,75299.50
2023-05-06T01:22:11.345Z,75307.66
2023-05-06T01:24:42.422Z,75311.72
2023-05-06T01:27:11.208Z,75315.81
2023-05-06T01:29:41.740Z,75321.91
2023-05-06T01:32:22.719Z,75317.84
2023-05-06T01:35:00.029Z,75330.06
2023-05-06T01:37:35.808Z,75332.09
2023-05-06T01:40:07.702Z,75332.09
2023-05-06T01:42:37.201Z,75332.09
2023-05-06T01:45:08.234Z,75332.09
2023-05-06T01:47:37.089Z,75340.25
2023-05-06T01:50:06.510Z,75348.41
2023-05-06T01:52:34.231Z,75348.41
2023-05-06T01:55:01.949Z,75356.56
2023-05-06T01:57:31.143Z,75360.66
2023-05-06T01:59:58.866Z,75364.72
2023-05-06T02:02:26.696Z,75358.59
2023-05-06T02:04:54.574Z,75360.66
2023-05-06T02:07:22.317Z,75370.84
2023-05-06T02:09:50.071Z,75370.84
2023-05-06T02:12:17.889Z,75374.91
2023-05-06T02:14:46.993Z,75379.00
2023-05-06T02:17:14.707Z,75381.03
2023-05-06T02:19:42.544Z,75376.94
2023-05-06T02:22:10.330Z,75374.91
2023-05-06T02:24:38.087Z,75376.94
2023-05-06T02:27:06.358Z,75376.94
2023-05-06T02:29:34.067Z,75368.78
2023-05-06T02:32:03.131Z,75364.72
2023-05-06T02:34:31.001Z,75364.72
2023-05-06T02:36:58.732Z,75360.66
2023-05-06T02:39:26.538Z,75364.72
2023-05-06T02:41:54.357Z,75366.75
2023-05-06T02:44:22.161Z,75364.72
2023-05-06T02:46:49.901Z,75368.78
2023-05-06T02:49:19.027Z,75372.88
2023-05-06T02:51:47.158Z,75381.03
2023-05-06T02:54:14.888Z,75381.03
2023-05-06T02:56:43.502Z,75381.03
2023-05-06T02:59:11.222Z,75387.13
2023-05-06T03:01:38.981Z,75397.34
2023-05-06T03:04:07.105Z,75401.41
2023-05-06T03:06:36.294Z,75413.66
2023-05-06T03:09:05.089Z,75413.66
2023-05-06T03:11:33.305Z,75409.56
2023-05-06T03:14:01.027Z,75413.66
2023-05-06T03:16:28.827Z,75417.72
2023-05-06T03:18:56.641Z,75421.78
2023-05-06T03:21:24.531Z,75425.88
2023-05-06T03:23:53.641Z,75432.00
2023-05-06T03:26:21.487Z,75436.06
2023-05-06T03:28:49.279Z,75442.19
2023-05-06T03:31:17.259Z,75450.34
2023-05-06T03:33:45.105Z,75446.25
2023-05-06T03:36:14.041Z,75462.56
2023-05-06T03:38:41.768Z,75454.41
2023-05-06T03:41:11.033Z,75458.50
2023-05-06T03:43:38.824Z,75460.53
2023-05-06T03:46:06.585Z,75468.69
2023-05-06T03:48:34.364Z,75466.63
2023-05-06T03:51:02.334Z,75470.72
2023-05-06T03:53:30.201Z,75470.72
2023-05-06T03:55:57.987Z,75470.72
2023-05-06T03:58:27.060Z,75472.75
2023-05-06T04:00:54.801Z,75476.84
2023-05-06T04:03:22.734Z,75482.94
2023-05-06T04:05:51.479Z,75482.94
2023-05-06T04:08:19.221Z,75485.00
2023-05-06T04:10:47.643Z,75485.00
2023-05-06T04:13:15.591Z,75495.19
2023-05-06T04:15:44.767Z,75482.94
2023-05-06T04:18:15.368Z,75482.94
2023-05-06T04:20:43.073Z,75478.88
2023-05-06T04:23:10.823Z,75478.88
2023-05-06T04:25:39.494Z,75480.91
2023-05-06T04:28:07.255Z,75478.88
2023-05-06T04:30:35.934Z,75482.94
2023-05-06T04:33:05.156Z,75478.88
2023-05-06T04:35:33.570Z,75474.78
2023-05-06T04:38:03.573Z,75460.53
2023-05-06T04:40:31.384Z,75454.41
2023-05-06T04:42:59.149Z,75452.38
2023-05-06T04:45:27.172Z,75442.19
2023-05-06T04:47:55.005Z,75419.75
2023-05-06T04:50:24.401Z,75409.56
2023-05-06T04:52:52.147Z,75405.50
2023-05-06T04:55:19.996Z,75397.34
2023-05-06T04:57:47.733Z,75393.25
2023-05-06T05:00:16.424Z,75383.06
2023-05-06T05:02:44.389Z,75372.88
2023-05-06T05:05:12.375Z,75352.50
2023-05-06T05:07:41.707Z,75344.34
2023-05-06T05:10:10.688Z,75332.09
2023-05-06T05:12:38.653Z,75313.75
2023-05-06T05:15:07.724Z,75307.66
2023-05-06T05:17:35.806Z,75305.59
2023-05-06T05:20:04.858Z,75299.50
2023-05-06T05:22:32.898Z,75289.31
2023-05-06T05:25:02.046Z,75287.25
2023-05-06T05:27:29.801Z,75291.34
2023-05-06T05:29:57.580Z,75277.06
2023-05-06T05:32:25.443Z,75281.16
2023-05-06T05:34:53.295Z,75279.09
2023-05-06T05:37:21.119Z,75283.19
2023-05-06T05:39:48.932Z,75279.09
2023-05-06T05:42:18.031Z,75262.81
2023-05-06T05:44:45.858Z,75262.81
2023-05-06T05:47:13.677Z,75258.72
2023-05-06T05:49:41.815Z,75238.34
2023-05-06T05:52:09.872Z,75250.56
2023-05-06T05:54:37.679Z,75246.50
2023-05-06T05:57:05.561Z,75242.41
2023-05-06T05:59:34.642Z,75234.28
2023-05-06T06:02:02.458Z,75230.19
2023-05-06T06:04:30.274Z,75224.06
2023-05-06T06:06:58.828Z,75220.00
2023-05-06T06:09:26.680Z,75213.88
2023-05-06T06:11:54.991Z,75211.84
2023-05-06T06:14:22.754Z,75205.72
2023-05-06T06:16:51.922Z,75203.69
2023-05-06T06:19:19.750Z,75205.72
2023-05-06T06:21:47.585Z,75189.44
2023-05-06T06:24:15.537Z,75193.50
2023-05-06T06:26:43.271Z,75209.81
2023-05-06T06:29:11.058Z,75203.69
2023-05-06T06:31:40.469Z,75197.56
2023-05-06T06:34:12.556Z,75185.34
2023-05-06T06:36:45.079Z,75187.38
2023-05-06T06:39:12.957Z,75197.56
2023-05-06T06:41:40.970Z,75201.66
2023-05-06T06:44:08.931Z,75201.66
2023-05-06T06:46:36.736Z,75185.34
2023-05-06T06:49:04.905Z,75156.81
2023-05-06T06:51:34.024Z,75136.44
2023-05-06T06:54:01.764Z,75122.16
2023-05-06T06:56:29.744Z,75114.00
2023-05-06T06:58:57.511Z,75116.06
2023-05-06T07:01:25.302Z,75111.97
2023-05-06T07:03:53.255Z,75079.38
2023-05-06T07:06:21.016Z,75061.03
2023-05-06T07:08:50.180Z,75028.41
2023-05-06T07:11:17.983Z,75046.75
2023-05-06T07:13:45.791Z,75063.06
2023-05-06T07:16:13.531Z,75071.22
2023-05-06T07:18:41.308Z,75079.38
2023-05-06T07:21:09.098Z,75079.38
2023-05-06T07:23:36.836Z,75087.50
2023-05-06T07:26:06.088Z,75083.44
2023-05-06T07:28:33.822Z,75087.50
2023-05-06T07:31:01.537Z,75067.13
2023-05-06T07:33:29.339Z,75048.78
2023-05-06T07:35:57.102Z,75038.59
2023-05-06T07:38:25.309Z,75014.13
2023-05-06T07:40:53.125Z,75010.06
2023-05-06T07:43:22.865Z,75010.06
2023-05-06T07:45:50.813Z,75010.06
2023-05-06T07:48:20.154Z,74999.88
2023-05-06T07:50:48.130Z,75006.00
2023-05-06T07:53:15.862Z,74997.84
2023-05-06T07:55:43.625Z,74973.38
2023-05-06T07:58:11.361Z,74946.88
2023-05-06T08:00:40.462Z,74940.78
2023-05-06T08:03:08.429Z,74944.84
2023-05-06T08:05:36.198Z,74948.91
2023-05-06T08:08:04.023Z,74938.72
2023-05-06T08:10:31.900Z,74928.53
2023-05-06T08:12:59.640Z,74930.56
2023-05-06T08:15:27.442Z,74932.63
2023-05-06T08:18:02.183Z,74904.09
2023-05-06T08:20:35.054Z,74895.94
2023-05-06T08:23:02.841Z,74871.47
2023-05-06T08:25:30.774Z,74857.22
2023-05-06T08:27:58.640Z,74871.47
2023-05-06T08:30:26.580Z,74842.94
2023-05-06T08:32:54.367Z,74847.00
2023-05-06T08:35:23.486Z,74908.16
2023-05-06T08:37:51.649Z,74908.16
2023-05-06T08:40:21.031Z,74904.09
2023-05-06T08:42:50.306Z,74900.00
2023-05-06T08:45:19.058Z,74871.47
2023-05-06T08:47:47.387Z,74838.88
2023-05-06T08:50:15.424Z,74826.63
2023-05-06T08:52:44.976Z,74810.34
2023-05-06T08:55:13.441Z,74800.16
2023-05-06T08:57:43.458Z,74769.56
2023-05-06T09:00:12.270Z,74810.34
2023-05-06T09:02:42.804Z,74800.16
2023-05-06T09:05:12.168Z,74802.19
2023-05-06T09:07:40.195Z,74806.25
2023-05-06T09:10:14.222Z,74757.34
2023-05-06T09:12:42.130Z,74700.28
2023-05-06T09:15:11.810Z,74712.50
2023-05-06T09:17:39.836Z,74720.66
2023-05-06T09:20:12.474Z,74753.28
2023-05-06T09:22:40.701Z,74761.41
2023-05-06T09:25:12.079Z,74781.81
2023-05-06T09:27:40.809Z,74800.16
2023-05-06T09:30:11.607Z,74783.84
2023-05-06T09:32:40.435Z,74781.81
2023-05-06T09:35:09.834Z,74749.19
2023-05-06T09:37:37.836Z,74710.47
2023-05-06T09:40:06.459Z,74688.06
2023-05-06T09:42:35.814Z,74728.81
2023-05-06T09:45:03.635Z,74759.38
2023-05-06T09:47:35.103Z,74777.72
2023-05-06T09:50:03.902Z,74773.66
2023-05-06T09:52:32.140Z,74779.75
2023-05-06T09:55:01.563Z,74785.88
2023-05-06T09:57:30.935Z,74794.03
2023-05-06T10:00:02.071Z,74761.41
2023-05-06T10:02:30.336Z,74704.34
2023-05-06T10:05:00.026Z,74702.31
2023-05-06T10:07:29.943Z,74677.88
2023-05-06T10:10:00.142Z,74643.22
2023-05-06T10:12:28.011Z,74602.47
2023-05-06T10:14:56.132Z,74578.00
2023-05-06T10:17:26.822Z,74571.91
2023-05-06T10:19:59.385Z,74573.94
2023-05-06T10:22:53.323Z,74490.38
2023-05-06T10:25:27.329Z,74451.66
2023-05-06T10:27:55.126Z,74392.56
2023-05-06T10:30:24.884Z,74374.22
2023-05-06T10:32:58.005Z,74410.91
2023-05-06T10:35:36.851Z,74525.03
2023-05-06T10:38:06.194Z,74496.50
2023-05-06T10:40:34.118Z,74439.44
2023-05-06T10:43:27.001Z,74414.97
2023-05-06T10:46:02.910Z,74414.97
2023-05-06T10:48:33.269Z,74423.13
2023-05-06T10:51:24.292Z,74412.94
2023-05-06T10:53:58.076Z,74398.69
2023-05-06T10:56:25.942Z,74408.88
2023-05-06T10:58:55.493Z,74408.88
2023-05-06T11:01:24.001Z,74364.03
2023-05-06T11:03:53.441Z,74323.28
2023-05-06T11:06:38.477Z,74345.69
2023-05-06T11:09:07.427Z,74366.06
2023-05-06T11:11:49.831Z,74302.91
2023-05-06T11:14:27.403Z,74268.25
2023-05-06T11:16:56.880Z,74286.59
2023-05-06T11:19:27.244Z,74245.84
2023-05-06T11:21:57.599Z,74276.41
2023-05-06T11:24:27.913Z,74239.72
2023-05-06T11:26:56.324Z,74311.06
2023-05-06T11:29:24.896Z,74339.59
2023-05-06T11:31:54.105Z,74362.00
2023-05-06T11:34:24.677Z,74317.16
2023-05-06T11:36:58.605Z,74288.63
2023-05-06T11:39:30.433Z,74357.91
2023-05-06T11:42:02.893Z,74419.06
2023-05-06T11:44:32.010Z,74451.66
2023-05-06T11:47:01.837Z,74459.81
2023-05-06T11:49:29.902Z,74465.91
2023-05-06T11:51:59.076Z,74508.72
2023-05-06T11:54:28.170Z,74531.13
2023-05-06T11:56:57.472Z,74537.25
2023-05-06T11:59:30.982Z,74533.16
2023-05-06T12:02:00.509Z,74537.25
2023-05-06T12:04:28.826Z,74512.78
2023-05-06T12:06:57.422Z,74455.72
2023-05-06T12:09:26.819Z,74386.44
2023-05-06T12:11:55.376Z,74357.91
2023-05-06T12:14:23.234Z,74349.78
2023-05-06T12:16:51.576Z,74284.56
2023-05-06T12:19:20.289Z,74223.44
2023-05-06T12:21:48.240Z,74272.34
2023-05-06T12:24:16.582Z,74296.78
2023-05-06T12:26:47.624Z,74251.97
2023-05-06T12:29:17.711Z,74235.66
2023-05-06T12:31:48.010Z,74213.25
2023-05-06T12:34:16.276Z,74174.53
2023-05-06T12:36:45.940Z,74198.97
2023-05-06T12:39:14.819Z,74198.97
2023-05-06T12:41:43.898Z,74152.13
2023-05-06T12:44:33.311Z,74235.66
2023-05-06T12:47:02.681Z,74300.88
2023-05-06T12:49:48.779Z,74333.47
2023-05-06T12:52:17.656Z,74378.28
2023-05-06T12:54:45.908Z,74410.91
2023-05-06T12:57:13.891Z,74419.06
2023-05-06T12:59:44.676Z,74445.53
2023-05-06T13:02:13.112Z,74470.00
2023-05-06T13:04:41.257Z,74488.34
2023-05-06T13:07:08.981Z,74488.34
2023-05-06T13:09:36.753Z,74482.22
2023-05-06T13:12:05.418Z,74500.56
2023-05-06T13:14:34.540Z,74496.50
2023-05-06T13:17:06.803Z,74478.16
2023-05-06T13:19:34.949Z,74486.31
2023-05-06T13:22:02.793Z,74490.38
2023-05-06T13:24:30.826Z,74437.41
2023-05-06T13:27:00.679Z,74370.16
2023-05-06T13:29:29.534Z,74343.66
2023-05-06T13:31:57.667Z,74325.31
2023-05-06T13:34:27.191Z,74300.88
2023-05-06T13:36:56.516Z,74278.44
2023-05-06T13:39:25.052Z,74272.34
2023-05-06T13:41:54.151Z,74233.63
2023-05-06T13:44:22.566Z,74251.97
2023-05-06T13:46:50.566Z,74260.09
2023-05-06T13:49:19.473Z,74225.47
2023-05-06T13:51:48.832Z,74217.31
2023-05-06T13:54:16.641Z,74221.38
2023-05-06T13:56:44.496Z,74213.25
2023-05-06T13:59:13.998Z,74198.97
2023-05-06T14:01:42.610Z,74213.25
2023-05-06T14:04:10.473Z,74237.69
2023-05-06T14:06:38.829Z,74211.22
2023-05-06T14:09:08.482Z,74223.44
2023-05-06T14:11:36.271Z,74256.03
2023-05-06T14:14:04.373Z,74280.50
2023-05-06T14:16:32.405Z,74300.88
2023-05-06T14:19:00.518Z,74243.81
2023-05-06T14:21:28.305Z,74223.44
2023-05-06T14:23:56.583Z,74229.53
2023-05-06T14:26:26.828Z,74256.03
2023-05-06T14:28:54.586Z,74256.03
2023-05-06T14:31:23.306Z,74272.34
2023-05-06T14:33:51.266Z,74280.50
2023-05-06T14:36:19.898Z,74272.34
2023-05-06T14:38:47.695Z,74266.22
2023-05-06T14:41:15.557Z,74268.25
2023-05-06T14:43:44.646Z,74264.19
2023-05-06T14:46:14.561Z,74251.97
2023-05-06T14:48:43.411Z,74249.91
2023-05-06T14:51:11.157Z,74239.72
2023-05-06T14:53:38.892Z,74231.59
2023-05-06T14:56:08.981Z,74203.06
2023-05-06T14:58:37.011Z,74256.03
2023-05-06T15:01:07.035Z,74266.22
2023-05-06T15:03:36.253Z,74247.88
2023-05-06T15:06:04.261Z,74237.69
2023-05-06T15:08:32.184Z,74256.03
2023-05-06T15:11:01.599Z,74282.53
2023-05-06T15:13:30.916Z,74274.38
2023-05-06T15:15:58.627Z,74286.59
2023-05-06T15:18:27.786Z,74286.59
2023-05-06T15:20:58.654Z,74309.00
2023-05-06T15:23:26.523Z,74333.47
2023-05-06T15:25:54.334Z,74335.50
2023-05-06T15:28:24.420Z,74339.59
2023-05-06T15:30:52.607Z,74294.75
2023-05-06T15:33:20.439Z,74300.88
2023-05-06T15:35:49.605Z,74256.03
2023-05-06T15:38:17.509Z,74233.63
2023-05-06T15:40:51.114Z,74258.06
2023-05-06T15:43:23.674Z,74219.34
2023-05-06T15:45:52.384Z,74231.59
2023-05-06T15:48:20.175Z,74235.66
2023-05-06T15:50:49.276Z,74260.09
2023-05-06T15:53:17.153Z,74266.22
2023-05-06T15:55:49.540Z,74272.34
2023-05-06T15:58:24.231Z,74272.34
2023-05-06T16:00:52.077Z,74274.38
2023-05-06T16:03:19.959Z,74327.34
2023-05-06T16:05:49.550Z,74386.44
2023-05-06T16:08:17.367Z,74404.78
2023-05-06T16:10:45.638Z,74412.94
2023-05-06T16:13:13.422Z,74425.16
2023-05-06T16:15:42.118Z,74449.63
2023-05-06T16:18:09.951Z,74463.88
2023-05-06T16:20:37.913Z,74492.41
2023-05-06T16:23:07.152Z,74520.94
2023-05-06T16:25:35.166Z,74553.56
2023-05-06T16:28:03.544Z,74573.94
2023-05-06T16:30:31.349Z,74557.63
2023-05-06T16:32:59.166Z,74569.84
2023-05-06T16:35:27.199Z,74590.22
2023-05-06T16:37:54.999Z,74602.47
2023-05-06T16:40:24.087Z,74606.53
2023-05-06T16:42:51.812Z,74614.69
2023-05-06T16:45:19.779Z,74620.81
2023-05-06T16:47:48.288Z,74628.94
2023-05-06T16:50:16.214Z,74620.81
2023-05-06T16:52:44.029Z,74610.63
2023-05-06T16:55:11.764Z,74610.63
2023-05-06T16:57:40.907Z,74618.75
2023-05-06T17:00:11.913Z,74628.94
2023-05-06T17:02:40.930Z,74631.00
2023-05-06T17:05:09.165Z,74643.22
2023-05-06T17:07:37.909Z,74647.28
2023-05-06T17:10:06.913Z,74653.41
2023-05-06T17:12:34.770Z,74659.53
2023-05-06T17:15:05.101Z,74663.59
2023-05-06T17:17:32.916Z,74659.53
2023-05-06T17:20:00.719Z,74679.91
2023-05-06T17:22:28.453Z,74679.91
2023-05-06T17:24:56.472Z,74688.06
2023-05-06T17:27:24.287Z,74688.06
2023-05-06T17:29:52.901Z,74690.09
2023-05-06T17:32:22.847Z,74704.34
2023-05-06T17:34:50.821Z,74712.50
2023-05-06T17:37:18.639Z,74724.75
2023-05-06T17:39:47.241Z,74730.84
2023-05-06T17:42:15.251Z,74736.97
2023-05-06T17:44:43.423Z,74743.06
2023-05-06T17:47:11.242Z,74757.34
2023-05-06T17:49:40.561Z,74765.50
2023-05-06T17:52:08.754Z,74783.84
2023-05-06T17:54:37.066Z,74785.88
2023-05-06T17:57:04.881Z,74794.03
2023-05-06T17:59:32.630Z,74802.19
2023-05-06T18:02:00.867Z,74814.41
2023-05-06T18:04:28.757Z,74824.59
2023-05-06T18:06:57.837Z,74836.81
2023-05-06T18:09:25.603Z,74851.09
2023-05-06T18:11:53.426Z,74859.25
2023-05-06T18:14:21.268Z,74869.44
2023-05-06T18:16:49.068Z,74879.63
2023-05-06T18:19:16.885Z,74893.91
2023-05-06T18:21:44.628Z,74906.13
2023-05-06T18:24:16.405Z,74912.22
2023-05-06T18:26:46.238Z,74920.38
2023-05-06T18:29:14.409Z,74928.53
2023-05-06T18:31:42.449Z,74942.81
2023-05-06T18:34:10.345Z,74965.22
2023-05-06T18:36:38.192Z,74977.47
2023-05-06T18:39:06.281Z,74979.50
2023-05-06T18:41:35.412Z,74989.69
2023-05-06T18:44:04.152Z,75001.91
2023-05-06T18:46:32.043Z,75018.22
2023-05-06T18:49:00.868Z,75030.44
2023-05-06T18:51:31.392Z,75046.75
2023-05-06T18:53:59.656Z,75058.97
2023-05-06T18:56:27.487Z,75054.91
2023-05-06T18:58:56.609Z,75067.13
2023-05-06T19:01:25.075Z,75069.16
2023-05-06T19:03:53.044Z,75083.44
2023-05-06T19:06:20.854Z,75085.47
2023-05-06T19:08:48.657Z,75103.81
2023-05-06T19:11:18.170Z,75111.97
2023-05-06T19:13:46.303Z,75124.19
2023-05-06T19:16:15.684Z,75132.34
2023-05-06T19:18:43.666Z,75140.50
2023-05-06T19:21:13.274Z,75148.66
2023-05-06T19:23:41.041Z,75152.75
2023-05-06T19:26:10.915Z,75162.94
2023-05-06T19:28:38.794Z,75169.03
2023-05-06T19:31:08.339Z,75185.34
2023-05-06T19:33:37.773Z,75199.63
2023-05-06T19:36:06.657Z,75222.03
2023-05-06T19:38:35.445Z,75242.41
2023-05-06T19:41:03.270Z,75246.50
2023-05-06T19:43:31.607Z,75250.56
2023-05-06T19:45:59.440Z,75258.72
2023-05-06T19:48:27.367Z,75275.03
2023-05-06T19:50:56.499Z,75287.25
2023-05-06T19:53:24.304Z,75291.34
2023-05-06T19:55:55.791Z,75299.50
2023-05-06T19:58:26.224Z,75311.72
2023-05-06T20:00:56.326Z,75326.00
2023-05-06T20:03:27.093Z,75340.25
2023-05-06T20:06:05.963Z,75356.56
2023-05-06T20:08:35.779Z,75356.56
2023-05-06T20:11:05.642Z,75356.56
2023-05-06T20:13:33.695Z,75356.56
2023-05-06T20:16:04.274Z,75358.59
2023-05-06T20:18:32.499Z,75362.69
2023-05-06T20:21:01.695Z,75368.78
2023-05-06T20:23:30.725Z,75376.94
2023-05-06T20:26:01.651Z,75372.88
2023-05-06T20:28:29.906Z,75379.00
2023-05-06T20:30:59.772Z,75385.09
2023-05-06T20:33:27.750Z,75393.25
2023-05-06T20:35:56.168Z,75395.28
2023-05-06T20:38:26.958Z,75405.50
2023-05-06T20:40:54.876Z,75415.69
2023-05-06T20:43:23.991Z,75425.88
2023-05-06T20:45:52.002Z,75436.06
2023-05-06T20:48:19.958Z,75442.19
2023-05-06T20:50:47.772Z,75444.22
2023-05-06T20:53:15.568Z,75450.34
2023-05-06T20:55:44.805Z,75452.38
2023-05-06T20:58:12.585Z,75454.41
2023-05-06T21:00:40.361Z,75450.34
2023-05-06T21:03:08.223Z,75446.25
2023-05-06T21:05:36.149Z,75442.19
2023-05-06T21:08:04.001Z,75444.22
2023-05-06T21:10:31.816Z,75450.34
2023-05-06T21:13:01.392Z,75442.19
2023-05-06T21:15:29.234Z,75438.09
2023-05-06T21:17:57.124Z,75432.00
2023-05-06T21:20:24.930Z,75434.03
2023-05-06T21:22:53.257Z,75434.03
2023-05-06T21:25:21.434Z,75436.06
2023-05-06T21:27:49.176Z,75438.09
2023-05-06T21:30:18.388Z,75434.03
2023-05-06T21:32:46.540Z,75436.06
2023-05-06T21:35:14.361Z,75450.34
2023-05-06T21:37:42.088Z,75458.50
2023-05-06T21:40:11.258Z,75464.59
2023-05-06T21:42:39.084Z,75466.63
2023-05-06T21:45:08.327Z,75472.75
2023-05-06T21:47:37.662Z,75478.88
2023-05-06T21:50:06.075Z,75480.91
2023-05-06T21:52:33.824Z,75487.03
2023-05-06T21:55:01.597Z,75495.19
2023-05-06T21:57:29.354Z,75505.38
2023-05-06T21:59:57.362Z,75505.38
2023-05-06T22:02:25.210Z,75515.56
2023-05-06T22:04:54.352Z,75513.53
2023-05-06T22:07:22.174Z,75525.75
2023-05-06T22:09:49.905Z,75527.78
2023-05-06T22:12:17.636Z,75537.97
2023-05-06T22:14:46.008Z,75548.19
2023-05-06T22:17:13.773Z,75552.25
2023-05-06T22:19:41.858Z,75552.25
2023-05-06T22:22:11.453Z,75544.09
2023-05-06T22:24:40.586Z,75542.06
2023-05-06T22:27:08.306Z,75544.09
2023-05-06T22:29:36.099Z,75548.19
2023-05-06T22:32:04.162Z,75552.25
2023-05-06T22:34:32.030Z,75546.13
2023-05-06T22:37:00.993Z,75552.25
2023-05-06T22:39:30.417Z,75554.28
2023-05-06T22:41:58.184Z,75560.41
2023-05-06T22:44:25.985Z,75564.47
2023-05-06T22:46:54.906Z,75566.53
2023-05-06T22:49:23.436Z,75572.63
2023-05-06T22:51:51.287Z,75572.63
2023-05-06T22:54:19.065Z,75584.88
2023-05-06T22:56:48.145Z,75580.78
2023-05-06T22:59:16.061Z,75582.84
2023-05-06T23:01:43.940Z,75582.84
2023-05-06T23:04:11.827Z,75580.78
2023-05-06T23:06:40.041Z,75584.88
2023-05-06T23:09:07.944Z,75593.03
2023-05-06T23:11:35.748Z,75597.09
2023-05-06T23:14:05.289Z,75603.22
2023-05-06T23:16:33.189Z,75609.34
2023-05-06T23:19:01.080Z,75613.41
2023-05-06T23:21:28.862Z,75609.34
2023-05-06T23:23:56.628Z,75625.63
2023-05-06T23:26:24.502Z,75633.78
2023-05-06T23:28:52.337Z,75625.63
2023-05-06T23:31:21.607Z,75627.69
2023-05-06T23:33:49.420Z,75637.88
2023-05-06T23:36:17.399Z,75650.09
2023-05-06T23:38:45.389Z,75650.09
2023-05-06T23:41:13.342Z,75658.25
2023-05-06T23:43:41.211Z,75658.25
2023-05-06T23:46:09.107Z,75658.25
2023-05-06T23:48:38.448Z,75668.44
2023-05-06T23:51:06.366Z,75682.72
2023-05-06T23:53:36.049Z,75686.78
2023-05-06T23:56:04.138Z,75697.00
2023-05-06T23:58:31.930Z,75711.25
